^^
Saratoga-Weather Station Historical Data
Daily Summary for August 18, 2022 Units:  Both    English   Metric
Daily Weekly Monthly Yearly Custom
  High: Low: Average:
Temperature: 82.6 °F /  28.1 °C 65.8 °F /  18.8 °C 72.9 °F /  22.7 °C
Dew Point: 63.3 °F /  17.4 °C 56.1 °F /  13.4 °C 59.9 °F /  15.5 °C
Humidity: 83% 42% 66%
Wind Speed: 6mph /  9.7km/h - 1.1mph /  1.8km/h
Wind Gust: 10mph /  16.1km/h - -
Wind- - South
Pressure: 29.9 in /  1011.9 hPa 29.8 in /  1010.2 hPa -
Precipitation: 0 in /  0.0 mm    
Historical Graphs
 
 
Tabular Data for August 18, 2022
Time Temperature Dew Point Pressure Wind Wind Speed Wind Gust Humidity Rainfall Rate (Hourly) solar
00:01 71.8 °F /  22.1 °C 59.7 °F /  15.4 °C 29.8in /  1010.2hPa WSW 0.9mph /  1.4km/h 3mph /  4.8km/h 66% 0in /  0.0mm 0 W/m2
00:06 71.8 °F /  22.1 °C 59.7 °F /  15.4 °C 29.8in /  1010.2hPa WSW 0.9mph /  1.4km/h 1mph /  1.6km/h 66% 0in /  0.0mm 0 W/m2
00:11 71.4 °F /  21.9 °C 59.9 °F /  15.5 °C 29.8in /  1010.2hPa WSW 0.9mph /  1.4km/h 1mph /  1.6km/h 67% 0in /  0.0mm 0 W/m2
00:16 71.2 °F /  21.8 °C 59.7 °F /  15.4 °C 29.8in /  1010.5hPa WSW 0.9mph /  1.4km/h 2mph /  3.2km/h 67% 0in /  0.0mm 0 W/m2
00:21 70.9 °F /  21.6 °C 59.7 °F /  15.4 °C 29.8in /  1010.5hPa Calm   2mph /  3.2km/h 68% 0in /  0.0mm 0 W/m2
00:26 70.5 °F /  21.4 °C 59.4 °F /  15.2 °C 29.8in /  1010.5hPa WSW 0.9mph /  1.4km/h 2mph /  3.2km/h 68% 0in /  0.0mm 0 W/m2
00:31 70.2 °F /  21.2 °C 59.5 °F /  15.3 °C 29.8in /  1010.5hPa Calm   2mph /  3.2km/h 69% 0in /  0.0mm 0 W/m2
00:36 70 °F /  21.1 °C 59.4 °F /  15.2 °C 29.8in /  1010.5hPa Calm   1mph /  1.6km/h 69% 0in /  0.0mm 0 W/m2
00:41 69.6 °F /  20.9 °C 59.4 °F /  15.2 °C 29.8in /  1010.5hPa Calm   1mph /  1.6km/h 70% 0in /  0.0mm 0 W/m2
00:46 69.4 °F /  20.8 °C 59.5 °F /  15.3 °C 29.9in /  1010.8hPa Calm     71% 0in /  0.0mm 0 W/m2
00:51 69.3 °F /  20.7 °C 59.5 °F /  15.3 °C 29.9in /  1010.8hPa Calm   1mph /  1.6km/h 71% 0in /  0.0mm 0 W/m2
00:56 68.9 °F /  20.5 °C 59.5 °F /  15.3 °C 29.9in /  1010.8hPa Calm   1mph /  1.6km/h 72% 0in /  0.0mm 0 W/m2
01:01 68.7 °F /  20.4 °C 59.4 °F /  15.2 °C 29.9in /  1010.8hPa Calm     72% 0in /  0.0mm 0 W/m2
01:06 68.5 °F /  20.3 °C 59.5 °F /  15.3 °C 29.9in /  1010.8hPa WSW 0.9mph /  1.4km/h 2mph /  3.2km/h 73% 0in /  0.0mm 0 W/m2
01:11 68.4 °F /  20.2 °C 59.4 °F /  15.2 °C 29.9in /  1010.8hPa Calm     73% 0in /  0.0mm 0 W/m2
01:16 68.2 °F /  20.1 °C 59.2 °F /  15.1 °C 29.9in /  1010.8hPa Calm     73% 0in /  0.0mm 0 W/m2
01:21 68.2 °F /  20.1 °C 59.5 °F /  15.3 °C 29.9in /  1010.8hPa Calm   1mph /  1.6km/h 74% 0in /  0.0mm 0 W/m2
01:26 67.8 °F /  19.9 °C 59.5 °F /  15.3 °C 29.9in /  1010.8hPa Calm     75% 0in /  0.0mm 0 W/m2
01:31 67.8 °F /  19.9 °C 59.5 °F /  15.3 °C 29.9in /  1010.8hPa Calm     75% 0in /  0.0mm 0 W/m2
01:36 67.8 °F /  19.9 °C 59.5 °F /  15.3 °C 29.9in /  1010.8hPa Calm     75% 0in /  0.0mm 0 W/m2
01:41 67.8 °F /  19.9 °C 59.5 °F /  15.3 °C 29.9in /  1010.8hPa Calm     75% 0in /  0.0mm 0 W/m2
01:46 68 °F /  20 °C 59.7 °F /  15.4 °C 29.9in /  1010.8hPa Calm     75% 0in /  0.0mm 0 W/m2
01:51 68.2 °F /  20.1 °C 59.9 °F /  15.5 °C 29.9in /  1010.8hPa WSW 0.9mph /  1.4km/h 1mph /  1.6km/h 75% 0in /  0.0mm 0 W/m2
01:56 68.2 °F /  20.1 °C 59.9 °F /  15.5 °C 29.8in /  1010.5hPa Calm   1mph /  1.6km/h 75% 0in /  0.0mm 0 W/m2
02:01 68 °F /  20 °C 59.7 °F /  15.4 °C 29.8in /  1010.5hPa WSW 0.9mph /  1.4km/h 2mph /  3.2km/h 75% 0in /  0.0mm 0 W/m2
02:06 67.8 °F /  19.9 °C 59.5 °F /  15.3 °C 29.8in /  1010.5hPa Calm     75% 0in /  0.0mm 0 W/m2
02:11 67.8 °F /  19.9 °C 59.9 °F /  15.5 °C 29.8in /  1010.5hPa Calm     76% 0in /  0.0mm 0 W/m2
02:16 67.6 °F /  19.8 °C 59.7 °F /  15.4 °C 29.8in /  1010.5hPa Calm   1mph /  1.6km/h 76% 0in /  0.0mm 0 W/m2
02:21 67.6 °F /  19.8 °C 59.7 °F /  15.4 °C 29.8in /  1010.2hPa Calm   1mph /  1.6km/h 76% 0in /  0.0mm 0 W/m2
02:26 67.5 °F /  19.7 °C 60.1 °F /  15.6 °C 29.8in /  1010.2hPa WSW 0.9mph /  1.4km/h 1mph /  1.6km/h 77% 0in /  0.0mm 0 W/m2
02:31 67.3 °F /  19.6 °C 59.9 °F /  15.5 °C 29.8in /  1010.5hPa Calm   1mph /  1.6km/h 77% 0in /  0.0mm 0 W/m2
02:36 67.1 °F /  19.5 °C 59.7 °F /  15.4 °C 29.8in /  1010.5hPa SW 2mph /  3.2km/h 2mph /  3.2km/h 77% 0in /  0.0mm 0 W/m2
02:41 66.9 °F /  19.4 °C 59.9 °F /  15.5 °C 29.8in /  1010.5hPa Calm   1mph /  1.6km/h 78% 0in /  0.0mm 0 W/m2
02:46 66.7 °F /  19.3 °C 59.7 °F /  15.4 °C 29.8in /  1010.5hPa Calm   1mph /  1.6km/h 78% 0in /  0.0mm 0 W/m2
02:51 66.7 °F /  19.3 °C 59.7 °F /  15.4 °C 29.9in /  1010.8hPa Calm     78% 0in /  0.0mm 0 W/m2
02:56 66.6 °F /  19.2 °C 59.5 °F /  15.3 °C 29.9in /  1010.8hPa Calm     78% 0in /  0.0mm 0 W/m2
03:01 66.6 °F /  19.2 °C 59.9 °F /  15.5 °C 29.9in /  1010.8hPa SW 0.9mph /  1.4km/h 1mph /  1.6km/h 79% 0in /  0.0mm 0 W/m2
03:06 66.6 °F /  19.2 °C 59.9 °F /  15.5 °C 29.9in /  1010.8hPa Calm   1mph /  1.6km/h 79% 0in /  0.0mm 0 W/m2
03:11 66.6 °F /  19.2 °C 59.9 °F /  15.5 °C 29.9in /  1010.8hPa Calm     79% 0in /  0.0mm 0 W/m2
03:16 66.6 °F /  19.2 °C 59.9 °F /  15.5 °C 29.9in /  1010.8hPa Calm     79% 0in /  0.0mm 0 W/m2
03:21 66.4 °F /  19.1 °C 60.1 °F /  15.6 °C 29.9in /  1010.8hPa Calm     80% 0in /  0.0mm 0 W/m2
03:26 66.4 °F /  19.1 °C 60.1 °F /  15.6 °C 29.9in /  1010.8hPa Calm     80% 0in /  0.0mm 0 W/m2
03:31 66.4 °F /  19.1 °C 60.1 °F /  15.6 °C 29.9in /  1010.8hPa Calm     80% 0in /  0.0mm 0 W/m2
03:36 66.4 °F /  19.1 °C 60.1 °F /  15.6 °C 29.9in /  1010.8hPa Calm     80% 0in /  0.0mm 0 W/m2
03:41 66.4 °F /  19.1 °C 60.1 °F /  15.6 °C 29.9in /  1011.2hPa Calm     80% 0in /  0.0mm 0 W/m2
03:46 66.4 °F /  19.1 °C 60.1 °F /  15.6 °C 29.9in /  1011.2hPa Calm     80% 0in /  0.0mm 0 W/m2
03:51 66.4 °F /  19.1 °C 60.4 °F /  15.8 °C 29.9in /  1011.2hPa Calm     81% 0in /  0.0mm 0 W/m2
03:56 66.4 °F /  19.1 °C 60.4 °F /  15.8 °C 29.9in /  1011.2hPa Calm     81% 0in /  0.0mm 0 W/m2
04:01 66.6 °F /  19.2 °C 60.6 °F /  15.9 °C 29.9in /  1011.2hPa Calm     81% 0in /  0.0mm 0 W/m2
04:06 66.6 °F /  19.2 °C 60.3 °F /  15.7 °C 29.9in /  1011.2hPa Calm     80% 0in /  0.0mm 0 W/m2
04:11 66.6 °F /  19.2 °C 60.3 °F /  15.7 °C 29.9in /  1011.2hPa Calm     80% 0in /  0.0mm 0 W/m2
04:16 66.4 °F /  19.1 °C 60.1 °F /  15.6 °C 29.9in /  1010.8hPa Calm     80% 0in /  0.0mm 0 W/m2
04:21 66.4 °F /  19.1 °C 60.4 °F /  15.8 °C 29.9in /  1010.8hPa SW 0.9mph /  1.4km/h 2mph /  3.2km/h 81% 0in /  0.0mm 0 W/m2
04:27 66.4 °F /  19.1 °C 60.4 °F /  15.8 °C 29.9in /  1010.8hPa Calm     81% 0in /  0.0mm 0 W/m2
04:32 66.2 °F /  19 °C 60.3 °F /  15.7 °C 29.9in /  1010.8hPa Calm   1mph /  1.6km/h 81% 0in /  0.0mm 0 W/m2
04:37 66 °F /  18.9 °C 60.1 °F /  15.6 °C 29.9in /  1010.8hPa Calm     81% 0in /  0.0mm 0 W/m2
04:42 66 °F /  18.9 °C 60.1 °F /  15.6 °C 29.9in /  1010.8hPa SW 2mph /  3.2km/h 2mph /  3.2km/h 81% 0in /  0.0mm 0 W/m2
04:47 65.8 °F /  18.8 °C 60.3 °F /  15.7 °C 29.9in /  1010.8hPa Calm   1mph /  1.6km/h 82% 0in /  0.0mm 0 W/m2
04:52 65.8 °F /  18.8 °C 60.3 °F /  15.7 °C 29.9in /  1010.8hPa SW 0.9mph /  1.4km/h 2mph /  3.2km/h 82% 0in /  0.0mm 0 W/m2
04:57 65.8 °F /  18.8 °C 60.3 °F /  15.7 °C 29.9in /  1010.8hPa SW 0.9mph /  1.4km/h 2mph /  3.2km/h 82% 0in /  0.0mm 0 W/m2
05:02 65.8 °F /  18.8 °C 60.3 °F /  15.7 °C 29.9in /  1010.8hPa SW 0.9mph /  1.4km/h 2mph /  3.2km/h 82% 0in /  0.0mm 0 W/m2
05:07 65.8 °F /  18.8 °C 60.3 °F /  15.7 °C 29.9in /  1010.8hPa SW 0.9mph /  1.4km/h 1mph /  1.6km/h 82% 0in /  0.0mm 0 W/m2
05:12 66 °F /  18.9 °C 60.4 °F /  15.8 °C 29.9in /  1010.8hPa Calm   1mph /  1.6km/h 82% 0in /  0.0mm 0 W/m2
05:17 66 °F /  18.9 °C 60.1 °F /  15.6 °C 29.9in /  1010.8hPa Calm     81% 0in /  0.0mm 0 W/m2
05:22 66 °F /  18.9 °C 60.1 °F /  15.6 °C 29.9in /  1010.8hPa Calm     81% 0in /  0.0mm 0 W/m2
05:27 66.2 °F /  19 °C 60.3 °F /  15.7 °C 29.9in /  1010.8hPa Calm     81% 0in /  0.0mm 0 W/m2
05:32 66.2 °F /  19 °C 60.3 °F /  15.7 °C 29.9in /  1010.8hPa Calm     81% 0in /  0.0mm 0 W/m2
05:37 66.2 °F /  19 °C 60.3 °F /  15.7 °C 29.9in /  1010.8hPa Calm     81% 0in /  0.0mm 0 W/m2
05:42 66.2 °F /  19 °C 60.3 °F /  15.7 °C 29.9in /  1010.8hPa Calm     81% 0in /  0.0mm 0 W/m2
05:47 66.2 °F /  19 °C 60.3 °F /  15.7 °C 29.9in /  1010.8hPa Calm     81% 0in /  0.0mm 0 W/m2
05:52 66.2 °F /  19 °C 60.3 °F /  15.7 °C 29.9in /  1010.8hPa Calm     81% 0in /  0.0mm 0 W/m2
05:57 66.2 °F /  19 °C 60.6 °F /  15.9 °C 29.9in /  1010.8hPa Calm   2mph /  3.2km/h 82% 0in /  0.0mm 0 W/m2
06:02 66.2 °F /  19 °C 60.3 °F /  15.7 °C 29.9in /  1010.8hPa Calm     81% 0in /  0.0mm 0 W/m2
06:07 66.4 °F /  19.1 °C 60.8 °F /  16 °C 29.9in /  1010.8hPa Calm     82% 0in /  0.0mm 0 W/m2
06:12 66.4 °F /  19.1 °C 60.4 °F /  15.8 °C 29.9in /  1010.8hPa Calm     81% 0in /  0.0mm 0 W/m2
06:17 66.4 °F /  19.1 °C 60.4 °F /  15.8 °C 29.9in /  1010.8hPa Calm     81% 0in /  0.0mm 0 W/m2
06:22 66.4 °F /  19.1 °C 60.8 °F /  16 °C 29.9in /  1011.2hPa SW 2mph /  3.2km/h 2mph /  3.2km/h 82% 0in /  0.0mm 0 W/m2
06:27 66.4 °F /  19.1 °C 60.4 °F /  15.8 °C 29.9in /  1011.2hPa Calm     81% 0in /  0.0mm 0 W/m2
06:32 66.4 °F /  19.1 °C 60.8 °F /  16 °C 29.9in /  1011.2hPa Calm     82% 0in /  0.0mm 0 W/m2
06:37 66.4 °F /  19.1 °C 60.8 °F /  16 °C 29.9in /  1011.2hPa Calm   1mph /  1.6km/h 82% 0in /  0.0mm 0 W/m2
06:42 66.4 °F /  19.1 °C 60.8 °F /  16 °C 29.9in /  1011.2hPa Calm     82% 0in /  0.0mm 0 W/m2
06:47 66.4 °F /  19.1 °C 60.4 °F /  15.8 °C 29.9in /  1011.2hPa Calm   1mph /  1.6km/h 81% 0in /  0.0mm 0 W/m2
06:52 66.2 °F /  19 °C 60.3 °F /  15.7 °C 29.9in /  1011.2hPa Calm   1mph /  1.6km/h 81% 0in /  0.0mm 5 W/m2
06:57 66.4 °F /  19.1 °C 60.8 °F /  16 °C 29.9in /  1011.2hPa Calm     82% 0in /  0.0mm 7 W/m2
07:02 66.4 °F /  19.1 °C 60.4 °F /  15.8 °C 29.9in /  1011.5hPa Calm     81% 0in /  0.0mm 9 W/m2
07:07 66.4 °F /  19.1 °C 60.4 °F /  15.8 °C 29.9in /  1011.5hPa Calm     81% 0in /  0.0mm 9 W/m2
07:12 66.6 °F /  19.2 °C 61 °F /  16.1 °C 29.9in /  1011.2hPa Calm     82% 0in /  0.0mm 11 W/m2
07:17 66.6 °F /  19.2 °C 61 °F /  16.1 °C 29.9in /  1011.2hPa SSW 0.9mph /  1.4km/h 2mph /  3.2km/h 82% 0in /  0.0mm 12 W/m2
07:22 66.6 °F /  19.2 °C 61 °F /  16.1 °C 29.9in /  1011.5hPa Calm     82% 0in /  0.0mm 14 W/m2
07:27 66.6 °F /  19.2 °C 61 °F /  16.1 °C 29.9in /  1011.5hPa Calm   2mph /  3.2km/h 82% 0in /  0.0mm 14 W/m2
07:32 66.6 °F /  19.2 °C 61 °F /  16.1 °C 29.9in /  1011.5hPa SSW 0.9mph /  1.4km/h 1mph /  1.6km/h 82% 0in /  0.0mm 16 W/m2
07:37 66.6 °F /  19.2 °C 61 °F /  16.1 °C 29.9in /  1011.2hPa WSW 0.9mph /  1.4km/h 2mph /  3.2km/h 82% 0in /  0.0mm 19 W/m2
07:42 66.6 °F /  19.2 °C 61 °F /  16.1 °C 29.9in /  1011.5hPa Calm   1mph /  1.6km/h 82% 0in /  0.0mm 23 W/m2
07:47 66.6 °F /  19.2 °C 61 °F /  16.1 °C 29.9in /  1011.2hPa West 2mph /  3.2km/h 2mph /  3.2km/h 82% 0in /  0.0mm 23 W/m2
07:52 66.6 °F /  19.2 °C 61 °F /  16.1 °C 29.9in /  1011.2hPa Calm   1mph /  1.6km/h 82% 0in /  0.0mm 25 W/m2
07:57 66.4 °F /  19.1 °C 60.8 °F /  16 °C 29.9in /  1011.5hPa Calm   1mph /  1.6km/h 82% 0in /  0.0mm 25 W/m2
08:02 66.4 °F /  19.1 °C 60.8 °F /  16 °C 29.9in /  1011.5hPa Calm     82% 0in /  0.0mm 26 W/m2
08:07 66.4 °F /  19.1 °C 60.8 °F /  16 °C 29.9in /  1011.5hPa Calm     82% 0in /  0.0mm 30 W/m2
08:12 66.4 °F /  19.1 °C 60.8 °F /  16 °C 29.9in /  1011.5hPa Calm     82% 0in /  0.0mm 37 W/m2
08:17 66.6 °F /  19.2 °C 61.2 °F /  16.2 °C 29.9in /  1011.5hPa Calm     83% 0in /  0.0mm 46 W/m2
08:22 66.6 °F /  19.2 °C 61 °F /  16.1 °C 29.9in /  1011.2hPa Calm     82% 0in /  0.0mm 58 W/m2
08:27 66.7 °F /  19.3 °C 60.8 °F /  16 °C 29.9in /  1011.2hPa Calm   2mph /  3.2km/h 81% 0in /  0.0mm 60 W/m2
08:32 66.9 °F /  19.4 °C 61 °F /  16.1 °C 29.9in /  1011.2hPa Calm   1mph /  1.6km/h 81% 0in /  0.0mm 62 W/m2
08:37 67.1 °F /  19.5 °C 61.2 °F /  16.2 °C 29.9in /  1011.2hPa West 0.9mph /  1.4km/h 1mph /  1.6km/h 81% 0in /  0.0mm 54 W/m2
08:42 67.3 °F /  19.6 °C 61.2 °F /  16.2 °C 29.9in /  1011.2hPa Calm     81% 0in /  0.0mm 42 W/m2
08:47 67.3 °F /  19.6 °C 61 °F /  16.1 °C 29.9in /  1011.2hPa Calm   1mph /  1.6km/h 80% 0in /  0.0mm 40 W/m2
08:52 67.5 °F /  19.7 °C 61.2 °F /  16.2 °C 29.9in /  1011.2hPa West 0.9mph /  1.4km/h 2mph /  3.2km/h 80% 0in /  0.0mm 46 W/m2
08:57 67.5 °F /  19.7 °C 61.2 °F /  16.2 °C 29.9in /  1011.2hPa Calm     80% 0in /  0.0mm 54 W/m2
09:02 67.5 °F /  19.7 °C 61.2 °F /  16.2 °C 29.9in /  1011.2hPa Calm     80% 0in /  0.0mm 65 W/m2
09:07 67.6 °F /  19.8 °C 61.2 °F /  16.2 °C 29.9in /  1011.2hPa West 0.9mph /  1.4km/h 2mph /  3.2km/h 80% 0in /  0.0mm 69 W/m2
09:12 67.6 °F /  19.8 °C 61.2 °F /  16.2 °C 29.9in /  1011.2hPa Calm   1mph /  1.6km/h 80% 0in /  0.0mm 70 W/m2
09:17 67.8 °F /  19.9 °C 61 °F /  16.1 °C 29.9in /  1011.5hPa NW 2mph /  3.2km/h 3mph /  4.8km/h 79% 0in /  0.0mm 77 W/m2
09:22 68 °F /  20 °C 61.2 °F /  16.2 °C 29.9in /  1011.5hPa Calm   1mph /  1.6km/h 79% 0in /  0.0mm 88 W/m2
09:27 68.2 °F /  20.1 °C 61 °F /  16.1 °C 29.9in /  1011.5hPa NW 2mph /  3.2km/h 3mph /  4.8km/h 78% 0in /  0.0mm 91 W/m2
09:32 68.2 °F /  20.1 °C 61 °F /  16.1 °C 29.9in /  1011.5hPa Calm   1mph /  1.6km/h 78% 0in /  0.0mm 90 W/m2
09:37 68.4 °F /  20.2 °C 61.5 °F /  16.4 °C 29.9in /  1011.5hPa WNW 2mph /  3.2km/h 3mph /  4.8km/h 79% 0in /  0.0mm 84 W/m2
09:42 68.4 °F /  20.2 °C 61.2 °F /  16.2 °C 29.9in /  1011.5hPa WNW 2mph /  3.2km/h 3mph /  4.8km/h 78% 0in /  0.0mm 81 W/m2
09:47 68.4 °F /  20.2 °C 61.2 °F /  16.2 °C 29.9in /  1011.5hPa WNW 0.9mph /  1.4km/h 2mph /  3.2km/h 78% 0in /  0.0mm 83 W/m2
09:52 68.4 °F /  20.2 °C 61.2 °F /  16.2 °C 29.9in /  1011.5hPa NE 2mph /  3.2km/h 3mph /  4.8km/h 78% 0in /  0.0mm 95 W/m2
09:57 68.5 °F /  20.3 °C 61.7 °F /  16.5 °C 29.9in /  1011.5hPa SE 0.9mph /  1.4km/h 2mph /  3.2km/h 79% 0in /  0.0mm 142 W/m2
10:02 68.7 °F /  20.4 °C 61.5 °F /  16.4 °C 29.9in /  1011.5hPa Calm   3mph /  4.8km/h 78% 0in /  0.0mm 221 W/m2
10:07 69.1 °F /  20.6 °C 61.5 °F /  16.4 °C 29.9in /  1011.5hPa Calm   2mph /  3.2km/h 77% 0in /  0.0mm 225 W/m2
10:12 69.4 °F /  20.8 °C 61.9 °F /  16.6 °C 29.9in /  1011.5hPa ESE 0.9mph /  1.4km/h 2mph /  3.2km/h 77% 0in /  0.0mm 234 W/m2
10:17 69.6 °F /  20.9 °C 61.7 °F /  16.5 °C 29.9in /  1011.5hPa ESE 0.9mph /  1.4km/h 2mph /  3.2km/h 76% 0in /  0.0mm 243 W/m2
10:22 70 °F /  21.1 °C 62.1 °F /  16.7 °C 29.9in /  1011.5hPa Calm   1mph /  1.6km/h 76% 0in /  0.0mm 220 W/m2
10:27 70.3 °F /  21.3 °C 62.1 °F /  16.7 °C 29.9in /  1011.5hPa NNE 0.9mph /  1.4km/h 3mph /  4.8km/h 75% 0in /  0.0mm 188 W/m2
10:32 70.7 °F /  21.5 °C 62.4 °F /  16.9 °C 29.9in /  1011.2hPa East 0.9mph /  1.4km/h 3mph /  4.8km/h 75% 0in /  0.0mm 181 W/m2
10:37 70.7 °F /  21.5 °C 62.4 °F /  16.9 °C 29.9in /  1011.2hPa ENE 2.9mph /  4.7km/h 4mph /  6.4km/h 75% 0in /  0.0mm 207 W/m2
10:42 70.9 °F /  21.6 °C 62.2 °F /  16.8 °C 29.9in /  1011.5hPa ENE 4mph /  6.4km/h 4mph /  6.4km/h 74% 0in /  0.0mm 221 W/m2
10:47 70.9 °F /  21.6 °C 62.2 °F /  16.8 °C 29.9in /  1011.5hPa ENE 2mph /  3.2km/h 2mph /  3.2km/h 74% 0in /  0.0mm 246 W/m2
10:52 71.1 °F /  21.7 °C 62.4 °F /  16.9 °C 29.9in /  1011.5hPa ESE 2.9mph /  4.7km/h 3mph /  4.8km/h 74% 0in /  0.0mm 253 W/m2
10:57 71.2 °F /  21.8 °C 62.6 °F /  17 °C 29.9in /  1011.5hPa Calm   7mph /  11.3km/h 74% 0in /  0.0mm 278 W/m2
11:02 71.4 °F /  21.9 °C 62.8 °F /  17.1 °C 29.9in /  1011.5hPa ENE 2mph /  3.2km/h 4mph /  6.4km/h 74% 0in /  0.0mm 292 W/m2
11:07 71.8 °F /  22.1 °C 63 °F /  17.2 °C 29.9in /  1011.9hPa East 2mph /  3.2km/h 2mph /  3.2km/h 74% 0in /  0.0mm 283 W/m2
11:12 72 °F /  22.2 °C 62.8 °F /  17.1 °C 29.9in /  1011.9hPa ENE 4mph /  6.4km/h 7mph /  11.3km/h 73% 0in /  0.0mm 403 W/m2
11:17 72.3 °F /  22.4 °C 63.1 °F /  17.3 °C 29.9in /  1011.9hPa ENE 0.9mph /  1.4km/h 3mph /  4.8km/h 73% 0in /  0.0mm 478 W/m2
11:22 72.9 °F /  22.7 °C 63 °F /  17.2 °C 29.9in /  1011.9hPa ENE 2mph /  3.2km/h 5mph /  8km/h 71% 0in /  0.0mm 348 W/m2
11:27 72.9 °F /  22.7 °C 63 °F /  17.2 °C 29.9in /  1011.9hPa East 0.9mph /  1.4km/h 2mph /  3.2km/h 71% 0in /  0.0mm 406 W/m2
11:32 72.9 °F /  22.7 °C 63 °F /  17.2 °C 29.9in /  1011.9hPa East 2mph /  3.2km/h 4mph /  6.4km/h 71% 0in /  0.0mm 283 W/m2
11:37 72.9 °F /  22.7 °C 63 °F /  17.2 °C 29.9in /  1011.9hPa East 2.9mph /  4.7km/h 4mph /  6.4km/h 71% 0in /  0.0mm 265 W/m2
11:42 72.9 °F /  22.7 °C 63 °F /  17.2 °C 29.9in /  1011.9hPa ESE 0.9mph /  1.4km/h 2mph /  3.2km/h 71% 0in /  0.0mm 267 W/m2
11:47 72.9 °F /  22.7 °C 62.4 °F /  16.9 °C 29.9in /  1011.5hPa Calm   4mph /  6.4km/h 70% 0in /  0.0mm 299 W/m2
11:52 73 °F /  22.8 °C 62.6 °F /  17 °C 29.9in /  1011.5hPa NE 0.9mph /  1.4km/h 3mph /  4.8km/h 70% 0in /  0.0mm 327 W/m2
11:57 73.2 °F /  22.9 °C 62.8 °F /  17.1 °C 29.9in /  1011.2hPa Calm   2mph /  3.2km/h 70% 0in /  0.0mm 380 W/m2
12:02 73.6 °F /  23.1 °C 63.1 °F /  17.3 °C 29.9in /  1011.2hPa ESE 0.9mph /  1.4km/h 4mph /  6.4km/h 70% 0in /  0.0mm 376 W/m2
12:07 74.1 °F /  23.4 °C 63.3 °F /  17.4 °C 29.9in /  1011.2hPa ESE 2mph /  3.2km/h 4mph /  6.4km/h 69% 0in /  0.0mm 383 W/m2
12:12 74.7 °F /  23.7 °C 63.3 °F /  17.4 °C 29.9in /  1010.8hPa East 4mph /  6.4km/h 8mph /  12.9km/h 68% 0in /  0.0mm 485 W/m2
12:17 74.8 °F /  23.8 °C 63.1 °F /  17.3 °C 29.9in /  1011.2hPa East 0.9mph /  1.4km/h 4mph /  6.4km/h 67% 0in /  0.0mm 322 W/m2
12:22 75 °F /  23.9 °C 63.3 °F /  17.4 °C 29.9in /  1011.2hPa SSW 0.9mph /  1.4km/h 3mph /  4.8km/h 67% 0in /  0.0mm 346 W/m2
12:27 75 °F /  23.9 °C 63.3 °F /  17.4 °C 29.9in /  1010.8hPa ESE 0.9mph /  1.4km/h 2mph /  3.2km/h 67% 0in /  0.0mm 452 W/m2
12:32 75.4 °F /  24.1 °C 63.1 °F /  17.3 °C 29.9in /  1010.8hPa ENE 2.9mph /  4.7km/h 4mph /  6.4km/h 66% 0in /  0.0mm 366 W/m2
12:37 75.6 °F /  24.2 °C 63 °F /  17.2 °C 29.9in /  1011.2hPa NE 2mph /  3.2km/h 7mph /  11.3km/h 65% 0in /  0.0mm 269 W/m2
12:42 75.4 °F /  24.1 °C 62.8 °F /  17.1 °C 29.9in /  1011.2hPa East 4mph /  6.4km/h 5mph /  8km/h 65% 0in /  0.0mm 220 W/m2
12:47 75.4 °F /  24.1 °C 62.8 °F /  17.1 °C 29.9in /  1011.2hPa East 2mph /  3.2km/h 4mph /  6.4km/h 65% 0in /  0.0mm 207 W/m2
12:52 75.2 °F /  24 °C 62.6 °F /  17 °C 29.9in /  1011.5hPa ENE 2mph /  3.2km/h 5mph /  8km/h 65% 0in /  0.0mm 197 W/m2
12:58 75 °F /  23.9 °C 62.4 °F /  16.9 °C 29.9in /  1011.5hPa ENE 2mph /  3.2km/h 5mph /  8km/h 65% 0in /  0.0mm 171 W/m2
13:03 74.8 °F /  23.8 °C 62.2 °F /  16.8 °C 29.9in /  1011.5hPa Calm   3mph /  4.8km/h 65% 0in /  0.0mm 167 W/m2
13:08 74.8 °F /  23.8 °C 61.9 °F /  16.6 °C 29.9in /  1011.5hPa Calm   5mph /  8km/h 64% 0in /  0.0mm 206 W/m2
13:13 74.7 °F /  23.7 °C 61.7 °F /  16.5 °C 29.9in /  1011.9hPa NNE 2mph /  3.2km/h 4mph /  6.4km/h 64% 0in /  0.0mm 207 W/m2
13:18 74.7 °F /  23.7 °C 61.7 °F /  16.5 °C 29.9in /  1011.5hPa ENE 2.9mph /  4.7km/h 3mph /  4.8km/h 64% 0in /  0.0mm 264 W/m2
13:23 74.8 °F /  23.8 °C 61.9 °F /  16.6 °C 29.9in /  1011.5hPa ESE 2mph /  3.2km/h 4mph /  6.4km/h 64% 0in /  0.0mm 330 W/m2
13:28 75 °F /  23.9 °C 61.5 °F /  16.4 °C 29.9in /  1011.5hPa East 2.9mph /  4.7km/h 5mph /  8km/h 63% 0in /  0.0mm 287 W/m2
13:33 75 °F /  23.9 °C 61.5 °F /  16.4 °C 29.9in /  1011.2hPa ENE 2.9mph /  4.7km/h 3mph /  4.8km/h 63% 0in /  0.0mm 329 W/m2
13:38 75.4 °F /  24.1 °C 62.4 °F /  16.9 °C 29.9in /  1011.2hPa ENE 0.9mph /  1.4km/h 3mph /  4.8km/h 64% 0in /  0.0mm 350 W/m2
13:43 75.7 °F /  24.3 °C 62.2 °F /  16.8 °C 29.9in /  1011.2hPa East 2.9mph /  4.7km/h 4mph /  6.4km/h 63% 0in /  0.0mm 420 W/m2
13:48 75.9 °F /  24.4 °C 62.4 °F /  16.9 °C 29.9in /  1011.2hPa Calm   5mph /  8km/h 63% 0in /  0.0mm 626 W/m2
13:53 76.5 °F /  24.7 °C 63 °F /  17.2 °C 29.9in /  1011.2hPa NNW 0.9mph /  1.4km/h 5mph /  8km/h 63% 0in /  0.0mm 454 W/m2
13:58 76.6 °F /  24.8 °C 62.2 °F /  16.8 °C 29.9in /  1010.8hPa NNW 2.9mph /  4.7km/h 4mph /  6.4km/h 61% 0in /  0.0mm 715 W/m2
14:03 76.8 °F /  24.9 °C 62.4 °F /  16.9 °C 29.9in /  1010.8hPa SE 2.9mph /  4.7km/h 5mph /  8km/h 61% 0in /  0.0mm 649 W/m2
14:08 77.2 °F /  25.1 °C 61.3 °F /  16.3 °C 29.9in /  1010.8hPa WSW 2mph /  3.2km/h 3mph /  4.8km/h 58% 0in /  0.0mm 668 W/m2
14:13 77.7 °F /  25.4 °C 62.2 °F /  16.8 °C 29.9in /  1010.8hPa NE 0.9mph /  1.4km/h 8mph /  12.9km/h 59% 0in /  0.0mm 671 W/m2
14:18 78.1 °F /  25.6 °C 62.1 °F /  16.7 °C 29.9in /  1010.8hPa ESE 2.9mph /  4.7km/h 4mph /  6.4km/h 58% 0in /  0.0mm 657 W/m2
14:23 78.3 °F /  25.7 °C 61.3 °F /  16.3 °C 29.9in /  1010.8hPa East 2mph /  3.2km/h 7mph /  11.3km/h 56% 0in /  0.0mm 675 W/m2
14:28 78.6 °F /  25.9 °C 61.2 °F /  16.2 °C 29.9in /  1010.8hPa North 2mph /  3.2km/h 4mph /  6.4km/h 55% 0in /  0.0mm 752 W/m2
14:33 79 °F /  26.1 °C 59.9 °F /  15.5 °C 29.9in /  1010.8hPa ESE 4mph /  6.4km/h 5mph /  8km/h 52% 0in /  0.0mm 735 W/m2
14:38 79.3 °F /  26.3 °C 60.3 °F /  15.7 °C 29.9in /  1010.8hPa WNW 4mph /  6.4km/h 4mph /  6.4km/h 52% 0in /  0.0mm 694 W/m2
14:43 79.5 °F /  26.4 °C 60.4 °F /  15.8 °C 29.9in /  1010.8hPa SSE 2.9mph /  4.7km/h 4mph /  6.4km/h 52% 0in /  0.0mm 812 W/m2
14:48 79.9 °F /  26.6 °C 60.1 °F /  15.6 °C 29.9in /  1010.8hPa ESE 4mph /  6.4km/h 7mph /  11.3km/h 51% 0in /  0.0mm 872 W/m2
14:53 80.1 °F /  26.7 °C 59.7 °F /  15.4 °C 29.9in /  1010.8hPa Calm   3mph /  4.8km/h 50% 0in /  0.0mm 886 W/m2
14:58 80.1 °F /  26.7 °C 59.7 °F /  15.4 °C 29.9in /  1010.8hPa Calm   2mph /  3.2km/h 50% 0in /  0.0mm 700 W/m2
15:03 80.4 °F /  26.9 °C 59.5 °F /  15.3 °C 29.9in /  1010.8hPa ENE 2mph /  3.2km/h 5mph /  8km/h 49% 0in /  0.0mm 540 W/m2
15:08 80.8 °F /  27.1 °C 59.2 °F /  15.1 °C 29.9in /  1010.8hPa ENE 4.9mph /  7.9km/h 5mph /  8km/h 48% 0in /  0.0mm 418 W/m2
15:13 80.8 °F /  27.1 °C 57.4 °F /  14.1 °C 29.9in /  1010.8hPa East 0.9mph /  1.4km/h 4mph /  6.4km/h 45% 0in /  0.0mm 773 W/m2
15:18 80.8 °F /  27.1 °C 58.1 °F /  14.5 °C 29.9in /  1010.8hPa NW 0.9mph /  1.4km/h 3mph /  4.8km/h 46% 0in /  0.0mm 480 W/m2
15:23 80.4 °F /  26.9 °C 57.7 °F /  14.3 °C 29.9in /  1010.8hPa SE 2.9mph /  4.7km/h 8mph /  12.9km/h 46% 0in /  0.0mm 561 W/m2
15:28 80.4 °F /  26.9 °C 57.7 °F /  14.3 °C 29.9in /  1010.8hPa Calm   3mph /  4.8km/h 46% 0in /  0.0mm 469 W/m2
15:33 80.8 °F /  27.1 °C 57.4 °F /  14.1 °C 29.9in /  1010.8hPa NNW 0.9mph /  1.4km/h 2mph /  3.2km/h 45% 0in /  0.0mm 346 W/m2
15:38 80.8 °F /  27.1 °C 58.1 °F /  14.5 °C 29.9in /  1010.8hPa NNW 2mph /  3.2km/h 3mph /  4.8km/h 46% 0in /  0.0mm 359 W/m2
15:43 80.6 °F /  27 °C 57.9 °F /  14.4 °C 29.9in /  1010.8hPa SW 2mph /  3.2km/h 3mph /  4.8km/h 46% 0in /  0.0mm 462 W/m2
15:48 80.4 °F /  26.9 °C 57.7 °F /  14.3 °C 29.9in /  1010.8hPa West 2.9mph /  4.7km/h 3mph /  4.8km/h 46% 0in /  0.0mm 476 W/m2
15:53 80.4 °F /  26.9 °C 58.3 °F /  14.6 °C 29.9in /  1010.8hPa ENE 2mph /  3.2km/h 5mph /  8km/h 47% 0in /  0.0mm 547 W/m2
15:58 80.8 °F /  27.1 °C 58.1 °F /  14.5 °C 29.8in /  1010.5hPa NE 0.9mph /  1.4km/h 6mph /  9.7km/h 46% 0in /  0.0mm 568 W/m2
16:03 81.1 °F /  27.3 °C 57.7 °F /  14.3 °C 29.8in /  1010.5hPa NNW 2mph /  3.2km/h 4mph /  6.4km/h 45% 0in /  0.0mm 343 W/m2
16:08 81.3 °F /  27.4 °C 57.4 °F /  14.1 °C 29.8in /  1010.5hPa NW 0.9mph /  1.4km/h 4mph /  6.4km/h 44% 0in /  0.0mm 434 W/m2
16:13 81.7 °F /  27.6 °C 57 °F /  13.9 °C 29.8in /  1010.5hPa SE 2mph /  3.2km/h 5mph /  8km/h 43% 0in /  0.0mm 585 W/m2
16:18 81.9 °F /  27.7 °C 57.2 °F /  14 °C 29.8in /  1010.5hPa NE 4.9mph /  7.9km/h 9mph /  14.5km/h 43% 0in /  0.0mm 580 W/m2
16:23 81.7 °F /  27.6 °C 56.3 °F /  13.5 °C 29.8in /  1010.5hPa East 4.9mph /  7.9km/h 5mph /  8km/h 42% 0in /  0.0mm 582 W/m2
16:28 81.5 °F /  27.5 °C 56.1 °F /  13.4 °C 29.8in /  1010.5hPa SSE 0.9mph /  1.4km/h 9mph /  14.5km/h 42% 0in /  0.0mm 577 W/m2
16:33 81.9 °F /  27.7 °C 56.5 °F /  13.6 °C 29.8in /  1010.5hPa ENE 0.9mph /  1.4km/h 3mph /  4.8km/h 42% 0in /  0.0mm 610 W/m2
16:38 82 °F /  27.8 °C 56.7 °F /  13.7 °C 29.8in /  1010.2hPa WNW 0.9mph /  1.4km/h 4mph /  6.4km/h 42% 0in /  0.0mm 603 W/m2
16:43 82.6 °F /  28.1 °C 57.2 °F /  14 °C 29.8in /  1010.2hPa East 6mph /  9.7km/h 7mph /  11.3km/h 42% 0in /  0.0mm 629 W/m2
16:48 82.2 °F /  27.9 °C 56.8 °F /  13.8 °C 29.8in /  1010.2hPa North 0.9mph /  1.4km/h 7mph /  11.3km/h 42% 0in /  0.0mm 575 W/m2
16:53 82 °F /  27.8 °C 56.7 °F /  13.7 °C 29.8in /  1010.2hPa ENE 4.9mph /  7.9km/h 6mph /  9.7km/h 42% 0in /  0.0mm 668 W/m2
16:58 81.9 °F /  27.7 °C 57.2 °F /  14 °C 29.8in /  1010.2hPa SE 2.9mph /  4.7km/h 4mph /  6.4km/h 43% 0in /  0.0mm 575 W/m2
17:03 82.2 °F /  27.9 °C 57.6 °F /  14.2 °C 29.8in /  1010.2hPa East 2mph /  3.2km/h 3mph /  4.8km/h 43% 0in /  0.0mm 529 W/m2
17:08 82.6 °F /  28.1 °C 57.7 °F /  14.3 °C 29.8in /  1010.2hPa NNE 0.9mph /  1.4km/h 3mph /  4.8km/h 43% 0in /  0.0mm 513 W/m2
17:13 82.6 °F /  28.1 °C 57.7 °F /  14.3 °C 29.8in /  1010.2hPa North 0.9mph /  1.4km/h 6mph /  9.7km/h 43% 0in /  0.0mm 285 W/m2
17:18 82 °F /  27.8 °C 57.4 °F /  14.1 °C 29.8in /  1010.2hPa ENE 2.9mph /  4.7km/h 5mph /  8km/h 43% 0in /  0.0mm 237 W/m2
17:23 81.9 °F /  27.7 °C 57.7 °F /  14.3 °C 29.8in /  1010.2hPa NW 2mph /  3.2km/h 3mph /  4.8km/h 44% 0in /  0.0mm 315 W/m2
17:28 81.7 °F /  27.6 °C 57.6 °F /  14.2 °C 29.8in /  1010.2hPa ENE 2mph /  3.2km/h 5mph /  8km/h 44% 0in /  0.0mm 301 W/m2
17:33 81.5 °F /  27.5 °C 58.1 °F /  14.5 °C 29.8in /  1010.5hPa SSW 0.9mph /  1.4km/h 3mph /  4.8km/h 45% 0in /  0.0mm 267 W/m2
17:38 81.7 °F /  27.6 °C 58.3 °F /  14.6 °C 29.8in /  1010.2hPa East 4mph /  6.4km/h 4mph /  6.4km/h 45% 0in /  0.0mm 209 W/m2
17:43 81.3 °F /  27.4 °C 57.9 °F /  14.4 °C 29.8in /  1010.5hPa NE 2mph /  3.2km/h 6mph /  9.7km/h 45% 0in /  0.0mm 192 W/m2
17:48 81 °F /  27.2 °C 57 °F /  13.9 °C 29.8in /  1010.5hPa NE 2mph /  3.2km/h 7mph /  11.3km/h 44% 0in /  0.0mm 162 W/m2
17:53 80.4 °F /  26.9 °C 56.5 °F /  13.6 °C 29.8in /  1010.2hPa East 2mph /  3.2km/h 3mph /  4.8km/h 44% 0in /  0.0mm 149 W/m2
17:58 80.2 °F /  26.8 °C 56.3 °F /  13.5 °C 29.8in /  1010.2hPa NE 0.9mph /  1.4km/h 6mph /  9.7km/h 44% 0in /  0.0mm 160 W/m2
18:03 80.2 °F /  26.8 °C 57.6 °F /  14.2 °C 29.8in /  1010.2hPa Calm   2mph /  3.2km/h 46% 0in /  0.0mm 186 W/m2
18:08 80.2 °F /  26.8 °C 57 °F /  13.9 °C 29.8in /  1010.2hPa East 0.9mph /  1.4km/h 3mph /  4.8km/h 45% 0in /  0.0mm 167 W/m2
18:13 80.2 °F /  26.8 °C 57.6 °F /  14.2 °C 29.8in /  1010.2hPa ENE 2mph /  3.2km/h 3mph /  4.8km/h 46% 0in /  0.0mm 155 W/m2
18:18 80.1 °F /  26.7 °C 56.8 °F /  13.8 °C 29.8in /  1010.2hPa ESE 0.9mph /  1.4km/h 4mph /  6.4km/h 45% 0in /  0.0mm 134 W/m2
18:23 80.1 °F /  26.7 °C 56.8 °F /  13.8 °C 29.8in /  1010.2hPa NE 2mph /  3.2km/h 3mph /  4.8km/h 45% 0in /  0.0mm 127 W/m2
18:28 80.1 °F /  26.7 °C 56.8 °F /  13.8 °C 29.8in /  1010.2hPa NE 2mph /  3.2km/h 2mph /  3.2km/h 45% 0in /  0.0mm 125 W/m2
18:33 79.9 °F /  26.6 °C 57.2 °F /  14 °C 29.8in /  1010.2hPa ENE 2mph /  3.2km/h 3mph /  4.8km/h 46% 0in /  0.0mm 128 W/m2
18:38 79.9 °F /  26.6 °C 57.2 °F /  14 °C 29.8in /  1010.2hPa ESE 2mph /  3.2km/h 3mph /  4.8km/h 46% 0in /  0.0mm 139 W/m2
18:43 79.7 °F /  26.5 °C 57 °F /  13.9 °C 29.8in /  1010.2hPa SE 0.9mph /  1.4km/h 3mph /  4.8km/h 46% 0in /  0.0mm 134 W/m2
18:48 79.9 °F /  26.6 °C 57.2 °F /  14 °C 29.8in /  1010.2hPa Calm     46% 0in /  0.0mm 120 W/m2
18:53 79.9 °F /  26.6 °C 57.9 °F /  14.4 °C 29.8in /  1010.2hPa Calm   2mph /  3.2km/h 47% 0in /  0.0mm 113 W/m2
18:58 80.1 °F /  26.7 °C 58.1 °F /  14.5 °C 29.8in /  1010.2hPa Calm     47% 0in /  0.0mm 107 W/m2
19:03 80.1 °F /  26.7 °C 58.1 °F /  14.5 °C 29.8in /  1010.2hPa Calm     47% 0in /  0.0mm 98 W/m2
19:08 80.2 °F /  26.8 °C 58.1 °F /  14.5 °C 29.8in /  1010.2hPa ENE 0.9mph /  1.4km/h 1mph /  1.6km/h 47% 0in /  0.0mm 98 W/m2
19:13 80.1 °F /  26.7 °C 57.4 °F /  14.1 °C 29.8in /  1010.2hPa NE 2mph /  3.2km/h 2mph /  3.2km/h 46% 0in /  0.0mm 97 W/m2
19:18 80.1 °F /  26.7 °C 57.4 °F /  14.1 °C 29.8in /  1010.2hPa Calm     46% 0in /  0.0mm 88 W/m2
19:23 80.1 °F /  26.7 °C 58.1 °F /  14.5 °C 29.8in /  1010.2hPa Calm     47% 0in /  0.0mm 81 W/m2
19:28 79.9 °F /  26.6 °C 58.5 °F /  14.7 °C 29.8in /  1010.2hPa East 2.9mph /  4.7km/h 3mph /  4.8km/h 48% 0in /  0.0mm 76 W/m2
19:33 79.9 °F /  26.6 °C 58.5 °F /  14.7 °C 29.8in /  1010.2hPa Calm   1mph /  1.6km/h 48% 0in /  0.0mm 60 W/m2
19:38 79.7 °F /  26.5 °C 58.3 °F /  14.6 °C 29.8in /  1010.2hPa ESE 3mph /  4.8km/h 3mph /  4.8km/h 48% 0in /  0.0mm 51 W/m2
19:43 79.5 °F /  26.4 °C 59.2 °F /  15.1 °C 29.8in /  1010.2hPa ESE 0.9mph /  1.4km/h 1mph /  1.6km/h 50% 0in /  0.0mm 49 W/m2
19:48 79.5 °F /  26.4 °C 59.2 °F /  15.1 °C 29.8in /  1010.2hPa Calm   1mph /  1.6km/h 50% 0in /  0.0mm 49 W/m2
19:53 79.3 °F /  26.3 °C 59 °F /  15 °C 29.8in /  1010.2hPa ESE 0.9mph /  1.4km/h 2mph /  3.2km/h 50% 0in /  0.0mm 49 W/m2
19:58 79.2 °F /  26.2 °C 60.1 °F /  15.6 °C 29.8in /  1010.2hPa Calm     52% 0in /  0.0mm 42 W/m2
20:03 79 °F /  26.1 °C 59.4 °F /  15.2 °C 29.8in /  1010.2hPa Calm     51% 0in /  0.0mm 32 W/m2
20:08 78.6 °F /  25.9 °C 60.1 °F /  15.6 °C 29.8in /  1010.2hPa Calm     53% 0in /  0.0mm 28 W/m2
20:13 78.4 °F /  25.8 °C 59.4 °F /  15.2 °C 29.8in /  1010.2hPa Calm   1mph /  1.6km/h 52% 0in /  0.0mm 19 W/m2
20:18 78.3 °F /  25.7 °C 59.7 °F /  15.4 °C 29.8in /  1010.2hPa Calm   1mph /  1.6km/h 53% 0in /  0.0mm 12 W/m2
20:23 78.1 °F /  25.6 °C 59 °F /  15 °C 29.8in /  1010.2hPa Calm   1mph /  1.6km/h 52% 0in /  0.0mm 7 W/m2
20:28 77.9 °F /  25.5 °C 58.3 °F /  14.6 °C 29.8in /  1010.2hPa WSW 0.9mph /  1.4km/h 3mph /  4.8km/h 51% 0in /  0.0mm 7 W/m2
20:33 77.7 °F /  25.4 °C 58.6 °F /  14.8 °C 29.8in /  1010.2hPa WSW 2mph /  3.2km/h 3mph /  4.8km/h 52% 0in /  0.0mm 12 W/m2
20:38 77.5 °F /  25.3 °C 58.5 °F /  14.7 °C 29.8in /  1010.5hPa WSW 2mph /  3.2km/h 3mph /  4.8km/h 52% 0in /  0.0mm 9 W/m2
20:43 77.5 °F /  25.3 °C 58.5 °F /  14.7 °C 29.8in /  1010.5hPa West 0.9mph /  1.4km/h 2mph /  3.2km/h 52% 0in /  0.0mm 7 W/m2
20:48 77.4 °F /  25.2 °C 58.8 °F /  14.9 °C 29.8in /  1010.5hPa WSW 2.9mph /  4.7km/h 4mph /  6.4km/h 53% 0in /  0.0mm 5 W/m2
20:53 77.4 °F /  25.2 °C 59.4 °F /  15.2 °C 29.8in /  1010.5hPa NW 2.9mph /  4.7km/h 6mph /  9.7km/h 54% 0in /  0.0mm 0 W/m2
20:59 77.5 °F /  25.3 °C 60.6 °F /  15.9 °C 29.8in /  1010.5hPa WNW 2mph /  3.2km/h 8mph /  12.9km/h 56% 0in /  0.0mm 0 W/m2
21:04 77.5 °F /  25.3 °C 60.6 °F /  15.9 °C 29.8in /  1010.5hPa NW 4mph /  6.4km/h 9mph /  14.5km/h 56% 0in /  0.0mm 0 W/m2
21:09 77.5 °F /  25.3 °C 60.1 °F /  15.6 °C 29.8in /  1010.5hPa WSW 2mph /  3.2km/h 4mph /  6.4km/h 55% 0in /  0.0mm 0 W/m2
21:14 77.4 °F /  25.2 °C 59.9 °F /  15.5 °C 29.8in /  1010.5hPa West 2.9mph /  4.7km/h 7mph /  11.3km/h 55% 0in /  0.0mm 0 W/m2
21:19 77.2 °F /  25.1 °C 59.7 °F /  15.4 °C 29.8in /  1010.5hPa WNW 4mph /  6.4km/h 5mph /  8km/h 55% 0in /  0.0mm 0 W/m2
21:24 76.8 °F /  24.9 °C 59.4 °F /  15.2 °C 29.8in /  1010.5hPa West 2.9mph /  4.7km/h 7mph /  11.3km/h 55% 0in /  0.0mm 0 W/m2
21:29 76.6 °F /  24.8 °C 58.8 °F /  14.9 °C 29.9in /  1010.8hPa NNW 2.9mph /  4.7km/h 8mph /  12.9km/h 54% 0in /  0.0mm 0 W/m2
21:34 76.6 °F /  24.8 °C 58.8 °F /  14.9 °C 29.9in /  1010.8hPa WNW 2mph /  3.2km/h 7mph /  11.3km/h 54% 0in /  0.0mm 0 W/m2
21:39 76.5 °F /  24.7 °C 59.2 °F /  15.1 °C 29.9in /  1010.8hPa NW 0.9mph /  1.4km/h 4mph /  6.4km/h 55% 0in /  0.0mm 0 W/m2
21:44 76.3 °F /  24.6 °C 59 °F /  15 °C 29.9in /  1010.8hPa West 2mph /  3.2km/h 10mph /  16.1km/h 55% 0in /  0.0mm 0 W/m2
21:49 75.9 °F /  24.4 °C 59.2 °F /  15.1 °C 29.9in /  1010.8hPa NW 0.9mph /  1.4km/h 6mph /  9.7km/h 56% 0in /  0.0mm 0 W/m2
21:54 75.7 °F /  24.3 °C 59 °F /  15 °C 29.9in /  1010.8hPa West 2.9mph /  4.7km/h 9mph /  14.5km/h 56% 0in /  0.0mm 0 W/m2
21:59 75.6 °F /  24.2 °C 58.8 °F /  14.9 °C 29.9in /  1010.8hPa West 4mph /  6.4km/h 8mph /  12.9km/h 56% 0in /  0.0mm 0 W/m2
22:04 75.4 °F /  24.1 °C 59 °F /  15 °C 29.9in /  1010.8hPa West 2.9mph /  4.7km/h 8mph /  12.9km/h 57% 0in /  0.0mm 0 W/m2
22:09 75.2 °F /  24 °C 59 °F /  15 °C 29.9in /  1010.8hPa NNW 0.9mph /  1.4km/h 4mph /  6.4km/h 57% 0in /  0.0mm 0 W/m2
22:14 75 °F /  23.9 °C 59.2 °F /  15.1 °C 29.9in /  1010.8hPa WSW 2.9mph /  4.7km/h 4mph /  6.4km/h 58% 0in /  0.0mm 0 W/m2
22:19 75 °F /  23.9 °C 59.2 °F /  15.1 °C 29.9in /  1010.8hPa NW 4mph /  6.4km/h 4mph /  6.4km/h 58% 0in /  0.0mm 0 W/m2
22:24 74.8 °F /  23.8 °C 59 °F /  15 °C 29.9in /  1010.8hPa West 0.9mph /  1.4km/h 3mph /  4.8km/h 58% 0in /  0.0mm 0 W/m2
22:29 74.8 °F /  23.8 °C 59.5 °F /  15.3 °C 29.9in /  1010.8hPa Calm   2mph /  3.2km/h 59% 0in /  0.0mm 0 W/m2
22:34 74.7 °F /  23.7 °C 59.4 °F /  15.2 °C 29.9in /  1010.8hPa NNW 0.9mph /  1.4km/h 5mph /  8km/h 59% 0in /  0.0mm 0 W/m2
22:39 74.7 °F /  23.7 °C 59.4 °F /  15.2 °C 29.9in /  1010.8hPa West 2.9mph /  4.7km/h 4mph /  6.4km/h 59% 0in /  0.0mm 0 W/m2
22:44 74.5 °F /  23.6 °C 59.2 °F /  15.1 °C 29.9in /  1010.8hPa West 2mph /  3.2km/h 5mph /  8km/h 59% 0in /  0.0mm 0 W/m2
22:49 74.3 °F /  23.5 °C 59.5 °F /  15.3 °C 29.9in /  1010.8hPa WSW 4mph /  6.4km/h 6mph /  9.7km/h 60% 0in /  0.0mm 0 W/m2
22:54 74.1 °F /  23.4 °C 59.4 °F /  15.2 °C 29.9in /  1011.2hPa West 2mph /  3.2km/h 7mph /  11.3km/h 60% 0in /  0.0mm 0 W/m2
22:59 73.9 °F /  23.3 °C 59.2 °F /  15.1 °C 29.9in /  1011.2hPa West 4mph /  6.4km/h 7mph /  11.3km/h 60% 0in /  0.0mm 0 W/m2
23:04 73.8 °F /  23.2 °C 59.5 °F /  15.3 °C 29.9in /  1011.2hPa WNW 0.9mph /  1.4km/h 3mph /  4.8km/h 61% 0in /  0.0mm 0 W/m2
23:09 73.8 °F /  23.2 °C 59.5 °F /  15.3 °C 29.9in /  1011.2hPa WNW 0.9mph /  1.4km/h 1mph /  1.6km/h 61% 0in /  0.0mm 0 W/m2
23:14 73.6 °F /  23.1 °C 59.4 °F /  15.2 °C 29.9in /  1011.2hPa WNW 2mph /  3.2km/h 2mph /  3.2km/h 61% 0in /  0.0mm 0 W/m2
23:19 73.2 °F /  22.9 °C 59.4 °F /  15.2 °C 29.9in /  1011.2hPa WNW 0.9mph /  1.4km/h 1mph /  1.6km/h 62% 0in /  0.0mm 0 W/m2
23:24 73 °F /  22.8 °C 59.7 °F /  15.4 °C 29.9in /  1011.2hPa Calm   1mph /  1.6km/h 63% 0in /  0.0mm 0 W/m2
23:29 72.7 °F /  22.6 °C 59.7 °F /  15.4 °C 29.9in /  1011.2hPa Calm   1mph /  1.6km/h 64% 0in /  0.0mm 0 W/m2
23:34 72.3 °F /  22.4 °C 59.5 °F /  15.3 °C 29.9in /  1011.2hPa WNW 0.9mph /  1.4km/h 2mph /  3.2km/h 64% 0in /  0.0mm 0 W/m2
23:39 72 °F /  22.2 °C 59.5 °F /  15.3 °C 29.9in /  1011.2hPa WNW 0.9mph /  1.4km/h 2mph /  3.2km/h 65% 0in /  0.0mm 0 W/m2
23:44 71.6 °F /  22 °C 59.7 °F /  15.4 °C 29.9in /  1011.5hPa WNW 0.9mph /  1.4km/h 1mph /  1.6km/h 66% 0in /  0.0mm 0 W/m2
23:49 71.2 °F /  21.8 °C 59.4 °F /  15.2 °C 29.9in /  1011.5hPa Calm   1mph /  1.6km/h 66% 0in /  0.0mm 0 W/m2
23:54 71.2 °F /  21.8 °C 59.7 °F /  15.4 °C 29.9in /  1011.9hPa Calm     67% 0in /  0.0mm 0 W/m2
23:59 71.1 °F /  21.7 °C 59.5 °F /  15.3 °C 29.9in /  1011.9hPa Calm     67% 0in /  0.0mm 0 W/m2
Juneau County Weather
Compliments of Weather Underground - 4 mb